Time;durP1;ratioP1;P1;durP2;ratioP2;P2;SDS_P1;SDS_P2;PMS_P1;PMS_P2;Temp;Humidity;BMP_temperature;BMP_pressure;BME280_temperature;BME280_humidity;BME280_pressure;Samples;Min_cycle;Max_cycle;Signal;HPM_P1;HPM_P2
2023/12/18 00:01:33;;;;;;;30.67;11.27;;;7.60;82.10;;;;;;5009438;28;20069;-75
2023/12/18 00:04:03;;;;;;;33.73;11.53;;;7.70;82.30;;;;;;5027554;28;20108;-74
2023/12/18 00:06:29;;;;;;;28.97;10.23;;;7.60;82.30;;;;;;5025901;28;20480;-75
2023/12/18 00:08:54;;;;;;;29.23;11.27;;;7.60;82.40;;;;;;5027878;28;20049;-75
2023/12/18 00:11:20;;;;;;;35.07;11.57;;;7.60;82.40;;;;;;5026715;28;20053;-75
2023/12/18 00:13:46;;;;;;;32.60;11.03;;;7.60;82.50;;;;;;5026488;28;20055;-75
2023/12/18 00:16:12;;;;;;;32.17;11.80;;;7.60;82.50;;;;;;5011182;28;20338;-74
2023/12/18 00:18:37;;;;;;;30.57;9.97;;;7.70;82.40;;;;;;5023058;28;20116;-74
2023/12/18 00:21:03;;;;;;;30.17;11.63;;;7.80;82.30;;;;;;5026344;28;20049;-75
2023/12/18 00:23:29;;;;;;;27.57;10.23;;;7.80;82.20;;;;;;5027327;28;20052;-75
2023/12/18 00:25:55;;;;;;;27.53;9.30;;;7.80;82.10;;;;;;5015361;28;20556;-75
2023/12/18 00:28:20;;;;;;;26.73;9.80;;;7.80;82.00;;;;;;5007736;28;20053;-75
2023/12/18 00:30:47;;;;;;;29.63;9.33;;;7.80;82.00;;;;;;5016665;28;20049;-74
2023/12/18 00:33:13;;;;;;;27.30;9.40;;;7.90;81.90;;;;;;5017064;28;20053;-75
2023/12/18 00:35:40;;;;;;;26.83;9.80;;;7.90;81.90;;;;;;5014986;28;20374;-74
2023/12/18 00:38:05;;;;;;;29.67;9.30;;;7.90;81.90;;;;;;5008649;28;20042;-75
2023/12/18 00:40:31;;;;;;;28.43;9.07;;;8.00;81.80;;;;;;5007212;28;20568;-75
2023/12/18 00:42:57;;;;;;;29.17;8.67;;;8.00;81.80;;;;;;5014986;28;20050;-75
2023/12/18 00:45:23;;;;;;;24.23;8.73;;;8.00;81.80;;;;;;5016176;28;20042;-75
2023/12/18 00:47:48;;;;;;;28.17;8.77;;;8.00;81.70;;;;;;5015558;28;20368;-74
2023/12/18 00:50:14;;;;;;;20.57;8.53;;;8.00;81.60;;;;;;5021374;28;20041;-74
2023/12/18 00:52:40;;;;;;;24.23;8.63;;;8.00;81.70;;;;;;5023227;28;20089;-75
2023/12/18 00:55:06;;;;;;;26.97;8.77;;;8.00;81.80;;;;;;5017769;28;20068;-75
2023/12/18 00:57:32;;;;;;;33.10;9.33;;;8.00;81.80;;;;;;4977756;28;20461;-75
2023/12/18 00:59:59;;;;;;;19.07;8.10;;;8.00;81.80;;;;;;4998825;28;20049;-74
2023/12/18 01:02:24;;;;;;;22.93;9.07;;;8.00;81.90;;;;;;5018984;28;20048;-74
2023/12/18 01:04:50;;;;;;;25.87;8.80;;;8.00;81.80;;;;;;5019061;28;20049;-74
2023/12/18 01:07:16;;;;;;;28.03;9.17;;;8.00;81.80;;;;;;5014442;28;20050;-74
2023/12/18 01:09:41;;;;;;;23.27;7.83;;;8.00;81.80;;;;;;5025219;28;20041;-75
2023/12/18 01:12:07;;;;;;;21.70;8.10;;;8.00;81.70;;;;;;5022020;28;20141;-74
2023/12/18 01:14:33;;;;;;;27.50;8.13;;;8.00;81.80;;;;;;5026828;28;20045;-75
2023/12/18 01:16:58;;;;;;;24.43;8.07;;;8.00;81.80;;;;;;5022023;28;20046;-75
2023/12/18 01:19:24;;;;;;;23.67;7.93;;;8.00;81.80;;;;;;5018758;28;20057;-75
2023/12/18 01:21:50;;;;;;;24.87;7.97;;;8.00;81.90;;;;;;5005581;28;20129;-75
2023/12/18 01:24:16;;;;;;;22.30;7.70;;;8.00;81.90;;;;;;5004737;28;20549;-75
2023/12/18 01:26:42;;;;;;;24.87;7.90;;;8.00;81.90;;;;;;5024678;28;20079;-74
2023/12/18 01:29:07;;;;;;;25.97;8.03;;;8.00;81.90;;;;;;5022838;28;20442;-75
2023/12/18 01:31:33;;;;;;;24.00;8.23;;;8.00;81.90;;;;;;5006018;28;20050;-75
2023/12/18 01:33:59;;;;;;;26.03;8.57;;;8.00;81.90;;;;;;5039231;28;20119;-75
2023/12/18 01:36:25;;;;;;;25.83;7.70;;;8.00;82.00;;;;;;5016751;28;20325;-75
2023/12/18 01:38:50;;;;;;;24.30;8.30;;;8.00;82.00;;;;;;5041434;28;20053;-75
2023/12/18 01:41:17;;;;;;;27.57;7.80;;;8.00;81.90;;;;;;5023063;28;20053;-75
2023/12/18 01:43:43;;;;;;;27.13;8.13;;;8.00;81.90;;;;;;5021558;28;20065;-75
2023/12/18 01:46:09;;;;;;;24.97;7.73;;;8.00;81.90;;;;;;5018682;28;20132;-75
2023/12/18 01:48:35;;;;;;;21.13;7.37;;;8.00;81.80;;;;;;5026192;28;20480;-75
2023/12/18 01:51:02;;;;;;;22.43;7.10;;;8.00;81.90;;;;;;5007808;28;20065;-74
2023/12/18 01:53:34;;;;;;;22.40;6.97;;;8.10;81.80;;;;;;5010863;28;20128;-74
2023/12/18 01:56:01;;;;;;;26.30;8.13;;;8.10;81.70;;;;;;5009824;28;20508;-75
2023/12/18 01:58:31;;;;;;;20.67;7.23;;;8.10;81.60;;;;;;5005546;28;20061;-75
2023/12/18 02:00:57;;;;;;;22.73;6.23;;;8.10;81.40;;;;;;5023789;28;20049;-75
2023/12/18 02:03:23;;;;;;;19.73;6.83;;;8.20;81.20;;;;;;5025576;28;20489;-75
2023/12/18 02:05:49;;;;;;;20.03;7.23;;;8.20;81.10;;;;;;5025879;28;20061;-75
2023/12/18 02:08:15;;;;;;;18.23;5.60;;;8.20;80.90;;;;;;5025936;28;20041;-76
2023/12/18 02:10:42;;;;;;;19.80;6.50;;;8.30;80.90;;;;;;5019097;28;20050;-74
2023/12/18 02:13:08;;;;;;;22.80;8.37;;;8.30;80.80;;;;;;5015043;28;20136;-75
2023/12/18 02:15:34;;;;;;;19.90;6.23;;;8.30;80.60;;;;;;5019325;28;20157;-75
2023/12/18 02:17:59;;;;;;;23.00;6.50;;;8.30;80.70;;;;;;5013799;28;20045;-75
2023/12/18 02:20:25;;;;;;;19.10;6.10;;;8.30;80.70;;;;;;5023733;28;20061;-75
2023/12/18 02:22:51;;;;;;;19.93;5.93;;;8.30;80.70;;;;;;5025069;28;20509;-75
2023/12/18 02:25:18;;;;;;;27.40;7.03;;;8.30;80.70;;;;;;5023709;28;20045;-75
2023/12/18 02:27:44;;;;;;;20.83;6.17;;;8.30;80.60;;;;;;5025743;28;20132;-74
2023/12/18 02:30:22;;;;;;;16.33;5.80;;;8.30;80.70;;;;;;5024738;28;20045;-75
2023/12/18 02:32:48;;;;;;;24.93;6.50;;;8.30;80.70;;;;;;5017331;28;20528;-75
2023/12/18 02:35:14;;;;;;;18.87;6.30;;;8.30;80.60;;;;;;5004357;28;20069;-74
2023/12/18 02:37:40;;;;;;;24.77;6.87;;;8.30;80.80;;;;;;5009335;28;20069;-75
2023/12/18 02:40:06;;;;;;;25.33;6.50;;;8.30;80.70;;;;;;5024285;28;20479;-75
2023/12/18 02:42:31;;;;;;;19.10;5.57;;;8.30;80.80;;;;;;5000670;28;20493;-74
2023/12/18 02:45:00;;;;;;;23.40;6.00;;;8.30;80.90;;;;;;5005241;28;20078;-75
2023/12/18 02:47:25;;;;;;;16.60;5.83;;;8.30;80.90;;;;;;4994899;28;20117;-74
2023/12/18 02:49:51;;;;;;;13.23;5.47;;;8.30;80.90;;;;;;5026690;28;20702;-74
2023/12/18 02:52:17;;;;;;;18.23;6.20;;;8.30;80.90;;;;;;5027640;28;20041;-75
2023/12/18 02:54:43;;;;;;;24.17;6.57;;;8.30;80.70;;;;;;5013182;28;20094;-74
2023/12/18 02:57:08;;;;;;;19.10;5.87;;;8.30;80.70;;;;;;5003902;28;20128;-74
2023/12/18 02:59:34;;;;;;;25.07;6.60;;;8.30;80.80;;;;;;5016877;28;20049;-76
2023/12/18 03:01:59;;;;;;;18.07;6.13;;;8.30;80.70;;;;;;5027538;28;20151;-74
2023/12/18 03:04:25;;;;;;;20.87;6.00;;;8.30;80.90;;;;;;5029040;28;20168;-75
2023/12/18 03:06:51;;;;;;;22.57;9.20;;;8.30;80.80;;;;;;5010990;28;20045;-75
2023/12/18 03:09:17;;;;;;;21.13;6.37;;;8.30;80.70;;;;;;5029190;28;20052;-75
2023/12/18 03:11:44;;;;;;;22.93;5.87;;;8.30;80.80;;;;;;5028751;28;20157;-75
2023/12/18 03:14:10;;;;;;;16.33;6.53;;;8.30;80.70;;;;;;5028571;28;20103;-75
2023/12/18 03:16:37;;;;;;;23.87;7.63;;;8.30;80.70;;;;;;5027139;28;20064;-75
2023/12/18 03:19:02;;;;;;;21.33;6.00;;;8.30;80.70;;;;;;5028384;28;20053;-75
2023/12/18 03:21:28;;;;;;;18.70;6.33;;;8.30;80.70;;;;;;5018621;28;20108;-74
2023/12/18 03:23:54;;;;;;;22.77;7.70;;;8.30;80.80;;;;;;5008980;28;20405;-75
2023/12/18 03:26:20;;;;;;;27.17;6.57;;;8.30;80.90;;;;;;5009618;28;20045;-76
2023/12/18 03:28:45;;;;;;;21.60;6.93;;;8.30;81.10;;;;;;5011492;28;20536;-75
2023/12/18 03:31:11;;;;;;;25.70;6.50;;;8.30;81.10;;;;;;5028089;28;20045;-74
2023/12/18 03:33:38;;;;;;;25.13;6.90;;;8.20;81.20;;;;;;5014604;28;20054;-75
2023/12/18 03:36:04;;;;;;;17.93;6.37;;;8.20;81.20;;;;;;5022656;28;20042;-74
2023/12/18 03:38:30;;;;;;;22.50;6.67;;;8.20;81.30;;;;;;5008559;28;20564;-75
2023/12/18 03:40:56;;;;;;;21.30;7.20;;;8.20;81.40;;;;;;5009032;28;20177;-75
2023/12/18 03:43:24;;;;;;;22.77;6.73;;;8.10;81.40;;;;;;5022347;28;20055;-75
2023/12/18 03:45:49;;;;;;;28.60;7.17;;;8.10;81.50;;;;;;5011887;28;20041;-75
2023/12/18 03:48:15;;;;;;;24.43;6.77;;;8.10;81.50;;;;;;5027785;28;20393;-75
2023/12/18 03:50:42;;;;;;;22.33;7.00;;;8.10;81.60;;;;;;5009069;28;20041;-75
2023/12/18 03:53:08;;;;;;;21.17;6.00;;;8.10;81.60;;;;;;5025663;28;20124;-75
2023/12/18 03:55:34;;;;;;;22.60;7.20;;;8.10;81.70;;;;;;5016607;28;20046;-75
2023/12/18 03:58:00;;;;;;;24.10;6.77;;;8.10;81.80;;;;;;5026109;28;20087;-75
2023/12/18 04:00:27;;;;;;;24.07;6.80;;;8.00;81.80;;;;;;5026580;28;20065;-74
2023/12/18 04:02:52;;;;;;;22.30;7.67;;;8.00;81.80;;;;;;5009267;28;20045;-75
2023/12/18 04:05:18;;;;;;;20.90;6.93;;;8.00;81.80;;;;;;5026643;28;20057;-74
2023/12/18 04:07:44;;;;;;;19.23;6.30;;;8.00;81.90;;;;;;5026522;28;20535;-75
2023/12/18 04:10:10;;;;;;;21.80;6.80;;;8.00;82.00;;;;;;5009529;28;20099;-75
2023/12/18 04:12:36;;;;;;;22.67;6.60;;;8.10;81.80;;;;;;5010588;28;20053;-75
2023/12/18 04:15:02;;;;;;;23.90;6.87;;;8.10;82.00;;;;;;5008010;28;20043;-75
2023/12/18 04:17:28;;;;;;;22.23;5.97;;;8.10;81.90;;;;;;5012462;28;20052;-74
2023/12/18 04:19:53;;;;;;;22.00;6.47;;;8.10;81.80;;;;;;5027446;28;20053;-75
2023/12/18 04:22:19;;;;;;;24.47;7.20;;;8.10;81.90;;;;;;5019469;28;20231;-74
2023/12/18 04:24:44;;;;;;;24.03;6.00;;;8.10;81.80;;;;;;5012407;28;20124;-75
2023/12/18 04:27:10;;;;;;;22.27;6.70;;;8.10;82.00;;;;;;5025236;28;20073;-74
2023/12/18 04:29:37;;;;;;;21.77;5.93;;;8.10;81.90;;;;;;5024493;28;20081;-75
2023/12/18 04:32:06;;;;;;;23.90;6.43;;;8.10;82.00;;;;;;5016289;28;20042;-74
2023/12/18 04:34:32;;;;;;;20.60;5.93;;;8.10;81.90;;;;;;5026698;28;20053;-74
2023/12/18 04:36:58;;;;;;;24.40;7.13;;;8.10;82.00;;;;;;5026683;28;20056;-74
2023/12/18 04:39:23;;;;;;;24.33;7.20;;;8.00;82.00;;;;;;5020944;28;20053;-75
2023/12/18 04:41:49;;;;;;;20.37;6.40;;;8.00;82.10;;;;;;5003181;28;20052;-75
2023/12/18 04:44:15;;;;;;;25.87;7.00;;;8.00;82.20;;;;;;5021379;28;20080;-75
2023/12/18 04:46:41;;;;;;;19.87;6.83;;;8.00;82.20;;;;;;5005592;28;20081;-75
2023/12/18 04:49:07;;;;;;;25.33;7.67;;;8.00;82.40;;;;;;5011714;28;20135;-74
2023/12/18 04:51:33;;;;;;;24.30;7.30;;;8.00;82.40;;;;;;5026261;28;20066;-74
2023/12/18 04:53:59;;;;;;;21.40;7.67;;;8.00;82.50;;;;;;5017879;28;20042;-74
2023/12/18 04:56:25;;;;;;;26.03;8.13;;;8.00;82.50;;;;;;5011119;28;20061;-76
2023/12/18 04:58:51;;;;;;;26.73;7.57;;;7.90;82.60;;;;;;5008709;28;20049;-75
2023/12/18 05:01:17;;;;;;;29.63;7.87;;;7.90;82.70;;;;;;5022542;28;20100;-74
2023/12/18 05:03:43;;;;;;;27.43;8.17;;;7.80;82.60;;;;;;5006514;28;20509;-74
2023/12/18 05:06:26;;;;;;;29.23;8.10;;;7.80;82.80;;;;;;5021946;28;20053;-74
2023/12/18 05:08:52;;;;;;;30.30;9.60;;;7.80;82.80;;;;;;4986445;28;20046;-75
2023/12/18 05:11:18;;;;;;;29.20;9.33;;;7.80;82.90;;;;;;4986856;28;20137;-75
2023/12/18 05:13:44;;;;;;;23.23;8.23;;;7.80;83.00;;;;;;4986847;28;20089;-74
2023/12/18 05:16:10;;;;;;;27.73;9.03;;;7.80;83.00;;;;;;4988008;28;20049;-76
2023/12/18 05:18:37;;;;;;;31.60;8.77;;;7.80;83.10;;;;;;5020289;28;20049;-75
2023/12/18 05:21:06;;;;;;;23.57;8.13;;;7.80;83.10;;;;;;5041739;28;20136;-74
2023/12/18 05:23:32;;;;;;;24.43;8.83;;;7.80;83.20;;;;;;5024705;28;20444;-75
2023/12/18 05:25:57;;;;;;;24.07;10.13;;;7.80;83.20;;;;;;5024949;28;20049;-74
2023/12/18 05:28:24;;;;;;;30.50;10.63;;;7.80;83.20;;;;;;5007779;28;20100;-74
2023/12/18 05:30:50;;;;;;;29.70;10.30;;;7.80;83.20;;;;;;5021833;28;20132;-75
2023/12/18 05:33:16;;;;;;;31.63;12.67;;;7.80;83.20;;;;;;5019463;28;20120;-75
2023/12/18 05:35:41;;;;;;;28.40;10.00;;;7.80;83.20;;;;;;5024697;28;20412;-74
2023/12/18 05:38:07;;;;;;;34.87;10.83;;;7.80;83.20;;;;;;5025692;28;20045;-74
2023/12/18 05:40:34;;;;;;;28.00;9.53;;;7.80;83.30;;;;;;5025574;28;20525;-74
2023/12/18 05:43:00;;;;;;;33.90;10.40;;;7.80;83.30;;;;;;5018462;28;20055;-75
2023/12/18 05:45:25;;;;;;;32.73;10.33;;;7.80;83.20;;;;;;5009584;28;20050;-75
2023/12/18 05:47:51;;;;;;;33.70;11.43;;;7.80;83.30;;;;;;5018930;28;20372;-74
2023/12/18 05:50:17;;;;;;;33.10;11.90;;;7.80;83.30;;;;;;5024713;28;20472;-75
2023/12/18 05:52:42;;;;;;;33.60;11.93;;;7.80;83.30;;;;;;5025976;28;20085;-75
2023/12/18 05:55:09;;;;;;;30.73;12.73;;;7.80;83.30;;;;;;5008759;28;20544;-75
2023/12/18 05:57:36;;;;;;;29.83;11.80;;;7.80;83.30;;;;;;5008620;28;20125;-76
2023/12/18 06:00:03;;;;;;;33.47;16.53;;;7.80;83.30;;;;;;5025587;28;20128;-75
2023/12/18 06:02:29;;;;;;;31.27;13.33;;;7.80;83.20;;;;;;5023871;28;20132;-74
2023/12/18 06:04:55;;;;;;;32.20;12.17;;;7.80;83.20;;;;;;5026444;28;20452;-75
2023/12/18 06:07:20;;;;;;;35.20;12.73;;;7.80;83.20;;;;;;5025540;28;20072;-74
2023/12/18 06:09:46;;;;;;;35.37;15.80;;;7.80;83.30;;;;;;5025507;28;20053;-76
2023/12/18 06:12:12;;;;;;;27.47;12.67;;;7.80;83.20;;;;;;5024486;28;20108;-74
2023/12/18 06:14:38;;;;;;;26.87;12.43;;;7.80;83.20;;;;;;5024286;28;20045;-74
2023/12/18 06:17:04;;;;;;;31.50;13.37;;;7.80;83.30;;;;;;5022338;28;20049;-75
2023/12/18 06:19:30;;;;;;;32.47;14.30;;;7.80;83.20;;;;;;5008206;28;20041;-75
2023/12/18 06:21:56;;;;;;;33.07;13.83;;;7.80;83.20;;;;;;5026063;28;20057;-75
2023/12/18 06:24:22;;;;;;;31.30;13.13;;;7.80;83.30;;;;;;5026899;28;20061;-75
2023/12/18 06:26:47;;;;;;;32.27;13.43;;;7.80;83.20;;;;;;5033772;28;20060;-75
2023/12/18 06:29:13;;;;;;;31.60;14.10;;;7.80;83.20;;;;;;5031073;28;20049;-75
2023/12/18 06:31:39;;;;;;;35.80;14.83;;;7.80;83.20;;;;;;5028464;28;20084;-75
2023/12/18 06:34:04;;;;;;;28.97;13.80;;;7.80;83.20;;;;;;5022318;28;20084;-75
2023/12/18 06:36:30;;;;;;;31.30;14.10;;;7.80;83.20;;;;;;5041232;28;20104;-76
2023/12/18 06:38:56;;;;;;;30.37;13.90;;;7.80;83.30;;;;;;5027374;28;20079;-74
2023/12/18 06:41:22;;;;;;;40.00;15.73;;;7.80;83.30;;;;;;5035776;28;20076;-76
2023/12/18 06:43:48;;;;;;;39.77;27.53;;;7.80;83.30;;;;;;5027447;28;20501;-75
2023/12/18 06:46:13;;;;;;;34.13;14.87;;;7.80;83.40;;;;;;5042301;28;20529;-75
2023/12/18 06:48:42;;;;;;;37.97;15.10;;;7.80;83.40;;;;;;5021915;28;20068;-74
2023/12/18 06:51:11;;;;;;;36.80;15.93;;;7.80;83.40;;;;;;5039570;28;20049;-74
2023/12/18 06:53:37;;;;;;;34.97;15.63;;;7.80;83.50;;;;;;5028422;28;20385;-75
2023/12/18 06:56:03;;;;;;;31.63;17.77;;;7.80;83.40;;;;;;5039570;28;20056;-75
2023/12/18 06:58:29;;;;;;;36.90;15.40;;;7.80;83.60;;;;;;5022331;28;20059;-74
2023/12/18 07:00:55;;;;;;;38.87;16.03;;;7.80;83.50;;;;;;5024934;28;20045;-74
2023/12/18 07:03:21;;;;;;;32.90;14.40;;;7.80;83.50;;;;;;5020890;28;20053;-75
2023/12/18 07:05:46;;;;;;;40.47;15.53;;;7.80;83.50;;;;;;5003798;28;20080;-75
2023/12/18 07:08:12;;;;;;;35.20;15.13;;;7.80;83.50;;;;;;5006311;28;20505;-75
2023/12/18 07:10:39;;;;;;;34.47;15.87;;;7.80;83.60;;;;;;4969635;28;20055;-75
2023/12/18 07:13:08;;;;;;;37.87;16.87;;;7.80;83.60;;;;;;4996468;28;20468;-75
2023/12/18 07:15:33;;;;;;;45.33;22.20;;;7.80;83.50;;;;;;5004031;28;20057;-74
2023/12/18 07:17:59;;;;;;;37.63;16.67;;;7.80;83.50;;;;;;5002793;28;20097;-75
2023/12/18 07:20:25;;;;;;;33.93;15.67;;;7.80;83.60;;;;;;5004981;28;20045;-75
2023/12/18 07:22:51;;;;;;;41.63;19.03;;;7.80;83.60;;;;;;4988019;28;20057;-75
2023/12/18 07:25:17;;;;;;;38.53;19.67;;;7.80;83.60;;;;;;5005356;28;20053;-75
2023/12/18 07:27:44;;;;;;;38.03;17.50;;;7.80;83.60;;;;;;5013451;28;20045;-75
2023/12/18 07:30:11;;;;;;;36.93;17.07;;;7.80;83.50;;;;;;4988374;28;20049;-75
2023/12/18 07:32:37;;;;;;;41.77;18.00;;;7.80;83.50;;;;;;5017649;28;20137;-75
2023/12/18 07:35:04;;;;;;;42.90;17.73;;;7.80;83.60;;;;;;5022470;28;20128;-73
2023/12/18 07:37:31;;;;;;;43.37;18.40;;;7.80;83.50;;;;;;5025297;28;20147;-75
2023/12/18 07:39:58;;;;;;;46.00;18.23;;;7.80;83.50;;;;;;5027100;28;20054;-75
2023/12/18 07:42:25;;;;;;;37.27;19.40;;;7.80;83.50;;;;;;5024184;28;20105;-74
2023/12/18 07:44:51;;;;;;;46.03;19.20;;;7.80;83.60;;;;;;5025185;28;20159;-75
2023/12/18 07:47:16;;;;;;;42.73;29.53;;;7.80;83.50;;;;;;5022026;28;20052;-75
2023/12/18 07:49:42;;;;;;;39.57;19.50;;;7.80;83.60;;;;;;5026590;28;20045;-75
2023/12/18 07:52:08;;;;;;;35.07;18.47;;;7.80;83.60;;;;;;5026074;28;20080;-75
2023/12/18 07:54:34;;;;;;;40.63;22.07;;;7.80;83.70;;;;;;5025952;28;20042;-75
2023/12/18 07:57:00;;;;;;;39.60;17.87;;;7.80;83.60;;;;;;5022466;28;20053;-75
2023/12/18 07:59:27;;;;;;;46.23;19.50;;;7.80;83.70;;;;;;5026429;28;20519;-75
2023/12/18 08:01:53;;;;;;;42.63;18.30;;;7.80;83.70;;;;;;5022695;28;20092;-74
2023/12/18 08:04:19;;;;;;;40.10;17.93;;;7.80;83.70;;;;;;5036202;28;20412;-74
2023/12/18 08:06:47;;;;;;;41.53;20.63;;;7.80;83.70;;;;;;5022621;28;20042;-74
2023/12/18 08:09:13;;;;;;;38.50;17.40;;;7.80;83.80;;;;;;5022489;28;20042;-76
2023/12/18 08:11:39;;;;;;;40.57;17.87;;;7.80;83.80;;;;;;5007634;28;20145;-76
2023/12/18 08:14:05;;;;;;;46.07;23.87;;;7.80;83.70;;;;;;4995530;28;20081;-75
2023/12/18 08:16:31;;;;;;;34.40;18.43;;;7.80;83.80;;;;;;4996451;28;20062;-74
2023/12/18 08:18:58;;;;;;;42.73;21.23;;;7.80;83.70;;;;;;4993619;28;20053;-75
2023/12/18 08:21:28;;;;;;;44.50;19.67;;;7.80;83.70;;;;;;4992366;28;20048;-75
2023/12/18 08:23:53;;;;;;;46.73;18.30;;;7.80;83.80;;;;;;4981827;28;20058;-75
2023/12/18 08:26:20;;;;;;;44.87;20.30;;;7.80;83.80;;;;;;4997817;28;20603;-75
2023/12/18 08:28:45;;;;;;;49.43;31.33;;;7.80;83.70;;;;;;4995756;28;20108;-75
2023/12/18 08:31:12;;;;;;;44.83;20.40;;;7.80;83.70;;;;;;4994853;28;20057;-75
2023/12/18 08:33:41;;;;;;;42.53;19.07;;;7.80;83.80;;;;;;4995654;28;20498;-76
2023/12/18 08:36:07;;;;;;;36.07;19.90;;;7.80;83.70;;;;;;4993068;28;20058;-75
2023/12/18 08:38:33;;;;;;;43.13;21.37;;;7.80;83.70;;;;;;4991494;28;20623;-76
2023/12/18 08:40:59;;;;;;;50.00;21.10;;;7.80;83.70;;;;;;4993140;28;20045;-72
2023/12/18 08:43:24;;;;;;;43.43;21.77;;;7.80;83.60;;;;;;4993653;28;21188;-76
2023/12/18 08:45:50;;;;;;;42.13;20.63;;;7.80;83.60;;;;;;4992725;28;20056;-75
2023/12/18 08:48:16;;;;;;;49.50;22.87;;;7.80;83.60;;;;;;4988797;28;20081;-75
2023/12/18 08:50:42;;;;;;;43.87;20.10;;;7.80;83.60;;;;;;4991874;28;20064;-75
2023/12/18 08:53:08;;;;;;;40.03;21.40;;;7.80;83.60;;;;;;5007487;28;20049;-75
2023/12/18 08:55:38;;;;;;;47.77;21.40;;;7.80;83.70;;;;;;4998034;28;20068;-75
2023/12/18 08:58:05;;;;;;;52.87;29.50;;;7.80;83.70;;;;;;5009819;28;20111;-76
2023/12/18 09:00:31;;;;;;;45.23;22.87;;;7.80;83.80;;;;;;4994556;28;20568;-74
2023/12/18 09:02:58;;;;;;;52.03;22.67;;;7.80;83.70;;;;;;4994100;28;20053;-75
2023/12/18 09:05:24;;;;;;;52.67;21.73;;;7.80;83.70;;;;;;4990923;28;20042;-76
2023/12/18 09:07:50;;;;;;;42.77;21.70;;;7.80;83.70;;;;;;4991394;28;20049;-75
2023/12/18 09:10:17;;;;;;;50.97;21.33;;;7.80;83.70;;;;;;5009759;28;20053;-76
2023/12/18 09:12:44;;;;;;;43.07;20.90;;;7.90;83.70;;;;;;4996439;28;20498;-76
2023/12/18 09:15:10;;;;;;;53.40;24.10;;;7.90;83.70;;;;;;4982329;28;20380;-76
2023/12/18 09:17:36;;;;;;;49.63;20.27;;;7.90;83.70;;;;;;4996280;28;20185;-75
2023/12/18 09:20:02;;;;;;;43.87;20.53;;;8.00;83.60;;;;;;4995024;28;20433;-75
2023/12/18 09:22:28;;;;;;;42.33;20.87;;;8.00;83.70;;;;;;4990207;28;20070;-74
2023/12/18 09:24:54;;;;;;;44.37;20.20;;;8.00;83.60;;;;;;4992053;28;20050;-75
2023/12/18 09:27:20;;;;;;;42.70;20.90;;;8.00;83.60;;;;;;4991611;28;20068;-75
2023/12/18 09:29:45;;;;;;;48.83;26.63;;;8.00;83.60;;;;;;4994311;28;20046;-75
2023/12/18 09:32:11;;;;;;;52.27;25.07;;;8.00;83.70;;;;;;4992313;28;20114;-76
2023/12/18 09:34:37;;;;;;;44.83;19.67;;;8.00;83.60;;;;;;5002169;28;20882;-76
2023/12/18 09:37:03;;;;;;;43.03;20.63;;;8.00;83.40;;;;;;5007835;28;20057;-76
2023/12/18 09:39:30;;;;;;;41.23;21.87;;;8.00;83.50;;;;;;5001699;28;20131;-74
2023/12/18 09:42:01;;;;;;;40.10;19.77;;;8.10;83.40;;;;;;5003768;28;20065;-76
2023/12/18 09:44:26;;;;;;;45.97;21.13;;;8.10;83.50;;;;;;4997098;28;20674;-75
2023/12/18 09:46:52;;;;;;;43.10;19.97;;;8.10;83.50;;;;;;4988617;28;20054;-77
2023/12/18 09:49:18;;;;;;;48.73;25.43;;;8.10;83.40;;;;;;5009740;28;20451;-76
2023/12/18 09:51:46;;;;;;;42.73;20.60;;;8.10;83.30;;;;;;4987330;28;20068;-75
2023/12/18 09:54:12;;;;;;;47.73;23.93;;;8.10;83.40;;;;;;5002120;28;20546;-76
2023/12/18 09:56:39;;;;;;;48.50;21.53;;;8.10;83.30;;;;;;4992652;28;20382;-76
2023/12/18 09:59:05;;;;;;;44.13;22.87;;;8.10;83.30;;;;;;4991716;28;20496;-76
2023/12/18 10:01:31;;;;;;;45.27;22.40;;;8.10;83.20;;;;;;4989060;28;20072;-76
2023/12/18 10:03:57;;;;;;;40.83;21.03;;;8.20;83.20;;;;;;4987392;28;20058;-76
2023/12/18 10:06:22;;;;;;;46.90;21.90;;;8.20;83.30;;;;;;4992513;28;20045;-76
2023/12/18 10:08:51;;;;;;;44.10;22.97;;;8.20;83.30;;;;;;4998230;28;20157;-76
2023/12/18 10:11:25;;;;;;;40.03;20.67;;;8.20;83.20;;;;;;4989858;28;20064;-76
2023/12/18 10:13:53;;;;;;;47.77;22.90;;;8.30;83.20;;;;;;4977480;28;20054;-76
2023/12/18 10:16:19;;;;;;;49.43;22.03;;;8.20;83.00;;;;;;4988692;28;20078;-76
2023/12/18 10:18:45;;;;;;;44.80;24.73;;;8.30;83.10;;;;;;4988582;28;20244;-76
2023/12/18 10:21:11;;;;;;;46.67;20.77;;;8.30;83.00;;;;;;4988515;28;20524;-76
2023/12/18 10:23:38;;;;;;;50.87;21.83;;;8.40;83.00;;;;;;4990806;28;20112;-76
2023/12/18 10:26:04;;;;;;;51.10;24.97;;;8.40;82.90;;;;;;4990159;28;20064;-76
2023/12/18 10:28:30;;;;;;;38.80;20.80;;;8.40;82.90;;;;;;4985302;28;20296;-76
2023/12/18 10:30:58;;;;;;;42.70;23.70;;;8.40;82.80;;;;;;4991732;28;20053;-76
2023/12/18 10:33:25;;;;;;;41.27;22.87;;;8.50;82.80;;;;;;4992478;28;20101;-75
2023/12/18 10:35:53;;;;;;;42.97;20.70;;;8.50;82.90;;;;;;4988049;28;21507;-76
2023/12/18 10:38:24;;;;;;;41.53;20.17;;;8.50;82.80;;;;;;4990955;28;20057;-76
2023/12/18 10:40:54;;;;;;;;;;;8.40;82.60;;;;;;4987942;28;20405;-76
2023/12/18 10:43:24;;;;;;;38.93;22.23;;;8.40;82.60;;;;;;4995601;28;19929;-76
2023/12/18 10:45:52;;;;;;;40.60;19.73;;;8.40;82.60;;;;;;4986827;28;20048;-76
2023/12/18 10:48:19;;;;;;;48.80;20.87;;;8.40;82.70;;;;;;4991729;28;20049;-76
2023/12/18 10:50:46;;;;;;;39.17;22.83;;;8.40;82.80;;;;;;4987540;28;20722;-75
2023/12/18 10:53:16;;;;;;;46.60;22.73;;;8.40;82.70;;;;;;4993160;28;20390;-76
2023/12/18 10:55:42;;;;;;;45.83;22.23;;;8.40;82.70;;;;;;4990104;28;20046;-76
2023/12/18 10:58:08;;;;;;;47.33;24.80;;;8.40;82.70;;;;;;4991534;28;20740;-76
2023/12/18 11:00:35;;;;;;;47.50;29.87;;;8.30;82.60;;;;;;4989190;28;20061;-77
2023/12/18 11:03:01;;;;;;;51.73;27.37;;;8.30;82.60;;;;;;4990922;28;20058;-75
2023/12/18 11:05:29;;;;;;;46.83;21.90;;;8.30;82.70;;;;;;4994318;28;20096;-75
2023/12/18 11:07:57;;;;;;;40.23;22.77;;;8.30;82.70;;;;;;4993065;28;20788;-75
2023/12/18 11:10:24;;;;;;;45.10;24.27;;;8.30;82.90;;;;;;4991319;28;20187;-75
2023/12/18 11:12:54;;;;;;;56.03;36.60;;;8.30;82.90;;;;;;4992647;28;20164;-75
2023/12/18 11:15:42;;;;;;;42.00;20.33;;;8.30;82.90;;;;;;4990726;28;20128;-76
2023/12/18 11:18:41;;;;;;;48.80;25.27;;;8.30;82.80;;;;;;4992959;28;20060;-76
2023/12/18 11:21:07;;;;;;;47.80;25.50;;;8.30;82.80;;;;;;4964975;28;20053;-76
2023/12/18 11:23:39;;;;;;;43.30;24.17;;;8.30;82.90;;;;;;4998134;28;20061;-76
2023/12/18 11:26:10;;;;;;;47.47;27.10;;;8.30;82.90;;;;;;4994572;28;20088;-76
2023/12/18 11:28:36;;;;;;;58.50;41.05;;;8.30;82.80;;;;;;5001187;28;20471;-76
2023/12/18 11:31:04;;;;;;;45.83;26.13;;;8.30;82.70;;;;;;5026216;28;20041;-75
2023/12/18 11:33:30;;;;;;;44.37;23.77;;;8.30;82.70;;;;;;5021331;28;20064;-75
2023/12/18 11:35:57;;;;;;;46.33;26.40;;;8.30;82.80;;;;;;5023422;28;20496;-74
2023/12/18 11:38:24;;;;;;;52.17;25.80;;;8.30;82.80;;;;;;5024929;28;20507;-75
2023/12/18 11:40:55;;;;;;;47.47;24.47;;;8.30;82.80;;;;;;5020131;28;20088;-76
2023/12/18 11:43:37;;;;;;;50.08;27.20;;;8.30;82.70;;;;;;5021450;28;20140;-75
2023/12/18 11:46:08;;;;;;;45.50;28.37;;;8.30;82.70;;;;;;5024380;28;20515;-74
2023/12/18 11:48:34;;;;;;;43.80;25.60;;;8.30;82.70;;;;;;5023691;28;20056;-75
2023/12/18 11:51:02;;;;;;;40.40;23.50;;;8.30;82.60;;;;;;5020154;28;20558;-76
2023/12/18 11:53:32;;;;;;;46.10;24.50;;;8.30;82.60;;;;;;5027061;28;20062;-76
2023/12/18 11:55:58;;;;;;;43.20;22.47;;;8.30;82.70;;;;;;5024538;28;20401;-75
2023/12/18 11:58:25;;;;;;;44.30;22.47;;;8.30;82.70;;;;;;5025469;28;20119;-75
2023/12/18 12:00:51;;;;;;;42.43;23.07;;;8.30;82.70;;;;;;5020600;28;20041;-75
2023/12/18 12:03:18;;;;;;;40.30;22.37;;;8.30;82.70;;;;;;5010890;28;20527;-75
2023/12/18 12:05:46;;;;;;;49.23;23.37;;;8.30;82.60;;;;;;5006684;28;20413;-75
2023/12/18 12:08:12;;;;;;;47.53;24.17;;;8.30;82.70;;;;;;5014924;28;20034;-75
2023/12/18 12:10:42;;;;;;;47.20;23.97;;;8.30;82.70;;;;;;5026048;28;20057;-75
2023/12/18 12:13:15;;;;;;;45.37;27.53;;;8.30;82.80;;;;;;5026850;28;20397;-76
2023/12/18 12:15:41;;;;;;;55.53;33.17;;;8.30;82.70;;;;;;5027702;28;20053;-74
2023/12/18 12:18:07;;;;;;;45.20;25.57;;;8.30;82.80;;;;;;5015767;28;20449;-76
2023/12/18 12:20:33;;;;;;;47.27;24.77;;;8.40;82.80;;;;;;5007767;28;20401;-76
2023/12/18 12:22:59;;;;;;;40.93;25.07;;;8.40;82.90;;;;;;5006080;28;20054;-75
2023/12/18 12:25:25;;;;;;;45.70;24.03;;;8.40;83.00;;;;;;5006064;28;20050;-75
2023/12/18 12:27:52;;;;;;;35.50;23.50;;;8.40;82.60;;;;;;5007695;28;20188;-75
2023/12/18 12:30:18;;;;;;;39.53;23.90;;;8.40;82.60;;;;;;5016473;28;20041;-75
2023/12/18 12:32:46;;;;;;;44.13;24.70;;;8.50;82.40;;;;;;5020320;28;20430;-74
2023/12/18 12:35:12;;;;;;;45.60;24.33;;;8.50;82.50;;;;;;5021241;28;20045;-75
2023/12/18 12:37:40;;;;;;;39.43;24.60;;;8.40;82.20;;;;;;5027677;28;20053;-76